createdAt,value
2022-12-04T07:59:27.028Z,78.60
2022-12-04T08:02:29.586Z,78.60
2022-12-04T08:05:31.971Z,78.50
2022-12-04T08:08:34.172Z,78.50
2022-12-04T08:11:35.918Z,78.60
2022-12-04T08:14:37.759Z,78.50
2022-12-04T08:17:39.719Z,78.60
2022-12-04T08:20:41.429Z,78.60
2022-12-04T08:23:43.546Z,78.50
2022-12-04T08:26:45.253Z,78.50
2022-12-04T08:29:47.218Z,78.50
2022-12-04T08:32:48.982Z,78.30
2022-12-04T08:35:50.675Z,78.30
2022-12-04T08:38:52.518Z,78.30
2022-12-04T08:41:57.196Z,78.30
2022-12-04T08:44:59.140Z,78.20
2022-12-04T08:48:01.081Z,78.10
2022-12-04T08:51:04.341Z,78.10
2022-12-04T08:54:07.688Z,78.00
2022-12-04T08:57:09.420Z,77.90
2022-12-04T09:00:12.946Z,77.90
2022-12-04T09:03:19.382Z,77.80
2022-12-04T09:06:21.098Z,77.70
2022-12-04T09:09:22.869Z,77.60
2022-12-04T09:12:24.569Z,77.60
2022-12-04T09:15:26.452Z,77.60
2022-12-04T09:18:28.403Z,77.70
2022-12-04T09:21:30.182Z,77.70
2022-12-04T09:24:31.920Z,77.70
2022-12-04T09:27:37.532Z,77.60
2022-12-04T09:30:40.413Z,77.60
2022-12-04T09:33:42.182Z,77.50
2022-12-04T09:36:43.872Z,77.60
2022-12-04T09:39:46.030Z,77.50
2022-12-04T09:42:53.927Z,77.50
2022-12-04T09:45:57.985Z,77.50
2022-12-04T09:49:12.848Z,77.40
2022-12-04T09:53:04.956Z,77.50
2022-12-04T09:56:09.397Z,77.60
2022-12-04T09:59:30.852Z,77.50
2022-12-04T10:02:35.788Z,77.50
2022-12-04T10:05:45.895Z,77.50
2022-12-04T10:08:53.245Z,77.50
2022-12-04T10:12:13.224Z,77.50
2022-12-04T10:15:31.603Z,77.50
2022-12-04T10:18:45.407Z,77.50
2022-12-04T10:22:02.378Z,77.40
2022-12-04T10:25:09.842Z,77.40
2022-12-04T10:28:24.796Z,77.50
2022-12-04T10:31:26.628Z,77.50
2022-12-04T10:34:31.513Z,77.50
2022-12-04T10:37:34.056Z,77.40
2022-12-04T10:40:48.949Z,77.50
2022-12-04T10:43:50.650Z,77.60
2022-12-04T10:46:56.328Z,77.50
2022-12-04T10:50:02.874Z,77.50
2022-12-04T10:53:06.326Z,77.30
2022-12-04T10:56:18.170Z,77.20
2022-12-04T10:59:19.912Z,77.20
2022-12-04T11:02:27.099Z,77.20
2022-12-04T11:05:29.132Z,77.10
2022-12-04T11:08:40.597Z,76.90
2022-12-04T11:11:42.280Z,76.90
2022-12-04T11:14:46.979Z,76.80
2022-12-04T11:17:49.414Z,76.70
2022-12-04T11:20:51.155Z,76.70
2022-12-04T11:23:52.844Z,76.60
2022-12-04T11:26:54.535Z,76.60
2022-12-04T11:29:56.500Z,76.50
2022-12-04T11:32:58.466Z,76.40
2022-12-04T11:36:02.180Z,76.30
2022-12-04T11:39:15.715Z,76.30
2022-12-04T11:42:19.930Z,76.20
2022-12-04T11:45:22.853Z,76.10
2022-12-04T11:48:25.028Z,76.20
2022-12-04T11:51:55.826Z,76.10
2022-12-04T11:55:04.380Z,76.00
2022-12-04T11:58:24.595Z,76.10
2022-12-04T12:01:41.025Z,76.10
2022-12-04T12:05:20.662Z,76.00
2022-12-04T12:08:23.068Z,76.10
2022-12-04T12:11:33.672Z,76.00
2022-12-04T12:14:48.090Z,75.90
2022-12-04T12:18:09.057Z,75.80
2022-12-04T12:21:33.359Z,75.80
2022-12-04T12:25:07.246Z,75.80
2022-12-04T12:28:12.246Z,75.60
2022-12-04T12:31:28.749Z,75.60
2022-12-04T12:34:37.596Z,75.40
2022-12-04T12:37:53.645Z,75.40
2022-12-04T12:41:28.246Z,75.50
2022-12-04T12:44:46.515Z,75.50
2022-12-04T12:47:49.180Z,75.50
2022-12-04T12:51:15.047Z,75.50
2022-12-04T12:54:35.772Z,75.70
2022-12-04T12:57:39.104Z,75.80
2022-12-04T13:00:56.599Z,75.80
2022-12-04T13:04:07.193Z,75.90
2022-12-04T13:07:26.336Z,75.90
2022-12-04T13:10:36.359Z,75.90
2022-12-04T13:13:46.049Z,76.00
2022-12-04T13:16:49.205Z,76.00
2022-12-04T13:19:54.091Z,75.90
2022-12-04T13:23:22.538Z,75.90
2022-12-04T13:26:49.023Z,75.80
2022-12-04T13:30:15.166Z,75.70
2022-12-04T13:33:35.734Z,75.70
2022-12-04T13:36:40.163Z,75.50
2022-12-04T13:40:10.183Z,75.60
2022-12-04T13:43:24.410Z,75.60
2022-12-04T13:46:36.144Z,75.50
2022-12-04T13:49:38.839Z,75.50
2022-12-04T13:52:41.342Z,75.50
2022-12-04T13:55:43.059Z,75.50
2022-12-04T13:58:44.738Z,75.50
2022-12-04T14:01:49.424Z,75.60
2022-12-04T14:05:01.834Z,75.60
2022-12-04T14:08:19.686Z,75.60
2022-12-04T14:11:21.455Z,75.50
2022-12-04T14:14:28.858Z,75.50
2022-12-04T14:17:35.067Z,75.60
2022-12-04T14:20:36.885Z,75.60
2022-12-04T14:23:40.447Z,75.50
2022-12-04T14:27:10.797Z,75.50
2022-12-04T14:30:21.803Z,75.50
2022-12-04T14:33:23.652Z,75.50
2022-12-04T14:36:31.768Z,75.60
2022-12-04T14:39:41.770Z,75.70
2022-12-04T14:42:43.449Z,75.60
2022-12-04T14:45:58.139Z,75.70
2022-12-04T14:49:53.752Z,75.70
2022-12-04T14:53:18.280Z,75.90
2022-12-04T14:56:24.382Z,76.10
2022-12-04T14:59:40.684Z,76.20
2022-12-04T15:02:43.851Z,76.30
2022-12-04T15:05:45.563Z,76.30
2022-12-04T15:09:31.926Z,76.30
2022-12-04T15:12:49.105Z,76.40
2022-12-04T15:15:50.915Z,76.50
2022-12-04T15:19:00.125Z,76.40
2022-12-04T15:22:07.402Z,76.40
2022-12-04T15:25:18.398Z,76.30
2022-12-04T15:28:40.119Z,76.30
2022-12-04T15:31:53.377Z,76.20
2022-12-04T15:34:58.185Z,76.20
2022-12-04T15:38:00.319Z,76.20
2022-12-04T15:41:02.104Z,76.20
2022-12-04T15:44:24.170Z,76.20
2022-12-04T15:47:26.580Z,76.20
2022-12-04T15:50:29.186Z,76.20
2022-12-04T15:53:32.949Z,76.10
2022-12-04T15:56:34.605Z,76.00
2022-12-04T15:59:36.616Z,76.00
2022-12-04T16:02:41.719Z,76.00
2022-12-04T16:05:43.408Z,76.00
2022-12-04T16:08:47.215Z,75.90
2022-12-04T16:11:58.030Z,75.80
2022-12-04T16:14:59.693Z,75.70
2022-12-04T16:18:01.903Z,75.60
2022-12-04T16:21:03.680Z,75.50
2022-12-04T16:24:05.990Z,75.50
2022-12-04T16:27:15.914Z,75.50
2022-12-04T16:30:17.698Z,75.50
2022-12-04T16:33:19.566Z,75.70
2022-12-04T16:36:21.334Z,75.70
2022-12-04T16:39:23.364Z,75.80
2022-12-04T16:42:26.966Z,76.00
2022-12-04T16:45:31.582Z,76.10
2022-12-04T16:48:34.835Z,76.30
2022-12-04T16:51:37.515Z,76.40
2022-12-04T16:54:39.703Z,76.60
2022-12-04T16:57:41.577Z,76.80
2022-12-04T17:00:44.103Z,76.80
2022-12-04T17:03:45.907Z,76.90
2022-12-04T17:06:47.768Z,76.90
2022-12-04T17:09:49.684Z,77.00
2022-12-04T17:12:54.768Z,77.20
2022-12-04T17:15:58.348Z,77.40
2022-12-04T17:19:00.114Z,77.60
2022-12-04T17:22:01.878Z,77.80
2022-12-04T17:25:03.956Z,78.00
2022-12-04T17:28:05.737Z,78.10
2022-12-04T17:31:15.659Z,78.00
2022-12-04T17:34:17.366Z,78.10
2022-12-04T17:37:20.151Z,78.10
2022-12-04T17:40:21.799Z,78.10
2022-12-04T17:43:23.508Z,78.20
2022-12-04T17:46:25.318Z,78.30
2022-12-04T17:49:27.645Z,78.40
2022-12-04T17:52:29.653Z,78.50
2022-12-04T17:55:31.337Z,78.50
2022-12-04T17:58:33.386Z,78.60
2022-12-04T18:01:35.144Z,78.60
2022-12-04T18:04:36.999Z,78.60
2022-12-04T18:07:39.016Z,78.60
2022-12-04T18:10:40.789Z,78.60
2022-12-04T18:13:42.486Z,78.70
2022-12-04T18:16:46.350Z,78.70
2022-12-04T18:19:48.161Z,78.80
2022-12-04T18:22:49.839Z,78.90
2022-12-04T18:25:55.847Z,78.90
2022-12-04T18:28:57.815Z,78.90
2022-12-04T18:31:59.629Z,79.00
2022-12-04T18:35:02.393Z,79.00
2022-12-04T18:38:04.286Z,79.00
2022-12-04T18:41:07.971Z,79.20
2022-12-04T18:44:09.668Z,79.20
2022-12-04T18:47:11.444Z,79.40
2022-12-04T18:50:13.368Z,79.40
2022-12-04T18:53:17.911Z,79.40
2022-12-04T18:56:21.513Z,79.40
2022-12-04T18:59:24.907Z,79.40
2022-12-04T19:02:26.711Z,79.40
2022-12-04T19:05:28.438Z,79.50
2022-12-04T19:08:33.779Z,79.60
2022-12-04T19:11:37.692Z,79.60
2022-12-04T19:14:39.859Z,79.60
2022-12-04T19:17:41.758Z,79.60
2022-12-04T19:20:44.446Z,79.70
2022-12-04T19:23:51.417Z,79.80
2022-12-04T19:26:53.766Z,79.80
2022-12-04T19:29:55.848Z,80.00
2022-12-04T19:32:57.897Z,80.00
2022-12-04T19:36:04.593Z,80.00
2022-12-04T19:39:09.216Z,80.00
2022-12-04T19:42:11.040Z,80.20
2022-12-04T19:45:12.912Z,80.30
2022-12-04T19:48:14.889Z,80.50
2022-12-04T19:51:18.126Z,80.60
2022-12-04T19:54:20.986Z,80.80
2022-12-04T19:57:22.838Z,80.70
2022-12-04T20:00:24.584Z,80.70
2022-12-04T20:03:26.346Z,80.70
2022-12-04T20:06:28.430Z,80.90
2022-12-04T20:09:30.347Z,80.90
2022-12-04T20:12:32.032Z,81.00
2022-12-04T20:15:37.315Z,81.00
2022-12-04T20:18:39.460Z,81.00
2022-12-04T20:21:41.309Z,81.00
2022-12-04T20:24:43.836Z,81.10
2022-12-04T20:27:45.616Z,81.20
2022-12-04T20:30:47.504Z,81.40
2022-12-04T20:33:50.609Z,81.60
2022-12-04T20:36:53.110Z,81.70
2022-12-04T20:39:55.398Z,81.80
2022-12-04T20:42:57.819Z,81.80
2022-12-04T20:45:59.675Z,82.00
2022-12-04T20:49:02.461Z,82.10
2022-12-04T20:52:04.708Z,82.20
2022-12-04T20:55:07.193Z,82.30
2022-12-04T20:58:09.210Z,82.40
2022-12-04T21:01:13.193Z,82.40
2022-12-04T21:04:17.651Z,82.40
2022-12-04T21:07:19.473Z,82.50
2022-12-04T21:10:21.171Z,82.50
2022-12-04T21:13:41.420Z,82.50
2022-12-04T21:16:43.231Z,82.60
2022-12-04T21:19:49.944Z,82.70
2022-12-04T21:22:51.659Z,82.80
2022-12-04T21:25:55.744Z,82.80
2022-12-04T21:28:58.317Z,82.80
2022-12-04T21:32:00.100Z,82.80
2022-12-04T21:35:01.780Z,82.90
2022-12-04T21:38:03.597Z,82.90
2022-12-04T21:41:07.244Z,83.00
2022-12-04T21:44:19.433Z,82.90
2022-12-04T21:47:21.172Z,83.00
2022-12-04T21:50:22.902Z,83.00
2022-12-04T21:53:24.623Z,83.00
2022-12-04T21:56:26.404Z,83.00
2022-12-04T21:59:28.079Z,83.00
2022-12-04T22:02:29.864Z,83.00
2022-12-04T22:05:34.507Z,83.00
2022-12-04T22:08:37.136Z,83.00
2022-12-04T22:11:41.377Z,83.00
